Tiempo atmosférico en la estación meteorológica de Manilva, Málaga (140 m.)



Fecha
DESCASC
Temp. máxima en grados centígrados (hora)
DESCASC
Temp. mínima en grados centígrados (hora)
DESCASC
Temp. media en grados centígrados
DESCASC
Racha de viento máxima en m/sg (hora)
DESCASC
Velocidad máxima media en intervalos de 10 minutos(hora)
DESCASC
Precipitaciones diarias en mm
DESCASC
Precipitaciones de 00:00 a 06:00 en mm
DESCASC
Precipitaciones de 06:00 a 12:00 en mm
DESCASC
Precipitaciones de 12:00 a 18:00 en mm
DESCASC
Precipitaciones de 18:00 a 24:00 en mm
DESCASC
17-02-2019 15.4 (15:30) 11.7 (06:10) 13.5 9.72 (02:20) 6.39 (12:40) 0 0 0 0 0
16-02-2019 14 (15:30) 12.8 (06:00) 13.4 13.61 (13:50) 8.61 (14:00) 0 0 0 0 0
15-02-2019 13.6 (15:20) 12 (00:30) 12.8 12.78 (16:10) 7.78 (15:10) 0 0 0 0 0
14-02-2019 14 (16:10) 11.9 (00:00) 12.9 12.5 (08:10) 7.5 (13:40) 0 0 0 0 0
13-02-2019 14.2 (15:40) 11.8 (00:00) 13 12.78 (13:40) 7.78 (13:40) 0 0 0 0 0
12-02-2019 14 (17:00) 12.4 (00:00) 13.2 13.06 (11:40) 8.06 (12:10) 0 0 0 0 0
11-02-2019 20.3 (18:10) 12.3 (00:00) 16.3 11.94 (03:00) 6.94 (06:30) 0 0 0 0 0
10-02-2019 19.2 (16:40) 8.2 (00:00) 13.7 13.06 (11:50) 8.89 (13:40) 0 0 0 0 0
09-02-2019 20 (15:00) 9.3 (00:00) 14.7 8.61 (12:10) 6.11 (09:20) 0 0 0 0 0
08-02-2019 17.5 (15:40) 9.6 (00:00) 13.6 6.94 (23:59) 5 (23:59) 0 0 0 0 0
07-02-2019 22.1 (15:00) 10.3 (00:00) 16.2 10.28 (17:00) 7.22 (16:30) 0 0 0 0 0
06-02-2019 18.6 (16:00) 8.8 (00:00) 13.7 4.44 (22:00) 2.5 (21:00) 0 0 0 0 0
05-02-2019 17.2 (17:20) 7.6 (00:00) 12.4 4.44 (13:10) 2.5 (13:30) 0 0 0 0 0
04-02-2019 15.5 (16:10) 6.1 (00:00) 10.8 5.56 (13:00) 3.61 (05:50) 0 0 0 0 0
03-02-2019 15.2 (15:50) 4.9 (00:00) 10 11.11 (09:40) 7.5 (10:00) 0 0 0 0 0
02-02-2019 14.3 (16:40) 7.3 (00:00) 10.8 17.22 (13:00) 10 (12:00) 0 0 0 0 0
01-02-2019 15.3 (15:20) 10.2 (00:00) 12.8 18.89 (06:40) 10 (06:40) 18.6 1.8 16.8 0 0
31-01-2019 15.1 (15:20) 12.4 (00:00) 13.8 13.89 (15:00) 7.22 (15:00) 6.4 2.4 3.6 0.2 0.2
30-01-2019 17.2 (14:50) 11.5 (00:00) 14.4 12.5 (01:30) 7.78 (01:50) 3.6 0 1 0 2.6
29-01-2019 14.5 (14:20) 10.6 (00:00) 12.6 18.33 (14:50) 11.67 (14:40) 0 0 0 0 0
28-01-2019 16.1 (14:40) 7.8 (00:00) 12 15.28 (15:50) 10.56 (02:50) 0 0 0 0 0
27-01-2019 16.3 (16:10) 10 (00:00) 13.1 16.39 (13:30) 11.39 (12:50) 0 0 0 0 0
26-01-2019 18.5 (17:30) 11.5 (00:00) 15 11.11 (23:50) 7.22 (23:59) 0 0 0 0 0
25-01-2019 23.9 (16:50) 12.5 (00:00) 18.2 10.83 (00:30) 7.5 (00:30) 0 0 0 0 0
24-01-2019 18.6 (16:50) 12.4 (00:00) 15.5 15.83 (09:20) 10.56 (09:20) 0 0 0 0 0
23-01-2019 14.1 (14:30) 10 (00:00) 12.1 15 (13:00) 9.44 (13:10) 0 0 0 0 0
22-01-2019 13.8 (14:50) 6.2 (00:00) 10 15.83 (14:40) 8.89 (14:40) 0 0 0 0 0
21-01-2019 18.8 (15:30) 8.1 (00:00) 13.4 8.61 (16:50) 5.56 (00:30) 0 0 0 0 0
20-01-2019 13.9 (12:50) 9.8 (00:00) 11.8 13.61 (12:30) 7.78 (12:30) 7.8 7.8 0 0 0
19-01-2019 13.2 (23:40) 9.3 (00:00) 11.3 10.28 (14:10) 7.22 (13:50) 4.8 1.2 2 0.4 1.2

Gráficas

Temp. máximas Temp. mínimas Temp. medias Precipitaciones Rachas de viento máximas Velocidades máximas media en intervalos de 10 minutos

Datos horarios

Fecha y hora oficial Temperatura (ºC) Velocidad del viento (km/h) Dirección del viento Racha (km/h) Dirección de racha Precipitación (mm) Presión (hPa) Tendencia (hPa) Humedad (%)
2019-02-17 23:00:00 11.9 5 Sudeste 17 Sudeste 0 -- -- 87
2019-02-17 22:00:00 13 11 Sudeste 22 Sudeste 0 -- -- 83
2019-02-17 21:00:00 13.2 10 Sudeste 24 Sudeste 0 -- -- 83
2019-02-17 20:00:00 13.3 11 Sudeste 23 Este 0 -- -- 84
2019-02-17 19:00:00 13.5 13 Sudeste 24 Sudeste 0 -- -- 83
2019-02-17 18:00:00 13.9 13 Sudeste 27 Sudeste 0 -- -- 82
2019-02-17 17:00:00 14.8 12 Sudeste 32 Sudeste 0 -- -- 79
2019-02-17 16:00:00 15.3 14 Sudeste 28 Sudeste 0 -- -- 77
2019-02-17 15:00:00 15 16 Sudeste 33 Sudeste 0 -- -- 77
2019-02-17 14:00:00 14.9 17 Sudeste 33 Sudeste 0 -- -- 79
2019-02-17 13:00:00 14.3 20 Sudeste 32 Este 0 -- -- 81
2019-02-17 12:00:00 13.9 19 Sudeste 32 Este 0 -- -- 83
2019-02-17 11:00:00 13.1 16 Sudeste 35 Sudeste 0 -- -- 84
2019-02-17 10:00:00 12.8 11 Sudeste 28 Sudeste 0 -- -- 83
2019-02-17 09:00:00 12.4 17 Sudeste 27 Sudeste 0 -- -- 81
2019-02-17 08:00:00 12.2 12 Sudeste 24 Sudeste 0 -- -- 82
2019-02-17 07:00:00 11.8 9 Sudeste 21 Este 0 -- -- 83
2019-02-17 06:00:00 11.8 7 Sudeste 21 Este 0 -- -- 86
2019-02-17 05:00:00 12.3 12 Sudeste 24 Sudeste 0 -- -- 86
2019-02-17 04:00:00 12.6 16 Sudeste 27 Sudeste 0 -- -- 86
2019-02-17 03:00:00 12.6 14 Sudeste 35 Sudeste 0 -- -- 86
2019-02-17 02:00:00 12.8 16 Sudeste 30 Sudeste 0 -- -- 87
2019-02-17 01:00:00 13.1 16 Sudeste 32 Este 0 -- -- 85
2019-02-17 00:00:00 12.9 18 Sudeste 32 Sudeste 0 -- -- 85
2019-02-16 23:00:00 12.9 18 Sudeste 39 Este 0 -- -- 84
2019-02-16 22:00:00 13.2 21 Sudeste 33 Este 0 -- -- 84
2019-02-16 21:00:00 13.3 17 Sudeste 33 Sudeste 0 -- -- 84
2019-02-16 20:00:00 13.2 19 Sudeste 35 Sudeste 0 -- -- 83
2019-02-16 19:00:00 13.4 19 Sudeste 39 Sudeste 0 -- -- 83
2019-02-16 18:00:00 13.5 20 Sudeste 40 Sudeste 0 -- -- 83
2019-02-16 17:00:00 13.7 23 Sudeste 45 Este 0 -- -- 82
2019-02-16 16:00:00 14 22 Sudeste 44 Sudeste 0 -- -- 80
2019-02-16 15:00:00 13.8 24 Sudeste 48 Sudeste 0 -- -- 81
2019-02-16 14:00:00 13.7 31 Sudeste 49 Sudeste 0 -- -- 81
2019-02-16 13:00:00 13.6 28 Sudeste 49 Este 0 -- -- 82
2019-02-16 12:00:00 13.4 27 Sudeste 47 Sudeste 0 -- -- 83
2019-02-16 11:00:00 13.2 24 Sudeste 40 Sudeste 0 -- -- 83
2019-02-16 10:00:00 13.4 26 Sudeste 42 Sudeste 0 -- -- 82
2019-02-16 09:00:00 13.1 23 Sudeste 39 Sudeste 0 -- -- 80
2019-02-16 08:00:00 13 19 Sudeste 34 Este 0 -- -- 80
2019-02-16 07:00:00 12.8 21 Sudeste 36 Sudeste 0 -- -- 82
2019-02-16 06:00:00 12.8 20 Sudeste 36 Sudeste 0 -- -- 83
2019-02-16 05:00:00 13 21 Sudeste 40 Este 0 -- -- 83
2019-02-16 04:00:00 13 21 Sudeste 36 Este 0 -- -- 83
2019-02-16 03:00:00 13.1 25 Sudeste 41 Este 0 -- -- 85
2019-02-16 02:00:00 13.1 28 Sudeste 44 Sudeste 0 -- -- 84
2019-02-16 01:00:00 13.2 27 Sudeste 41 Este 0 -- -- 85
2019-02-16 00:00:00 13 20 Sudeste 41 Sudeste 0 -- -- 84
2019-02-15 23:00:00 12.9 21 Sudeste 42 Sudeste 0 -- -- 84
2019-02-15 22:00:00 12.9 24 Sudeste 40 Sudeste 0 -- -- 83
2019-02-15 21:00:00 13 24 Sudeste 39 Sudeste 0 -- -- 80
2019-02-15 20:00:00 12.8 23 Sudeste 41 Este 0 -- -- 82
2019-02-15 19:00:00 12.6 28 Sudeste 44 Sudeste 0 -- -- 84
2019-02-15 18:00:00 13.1 27 Sudeste 41 Sudeste 0 -- -- 82
2019-02-15 17:00:00 13.4 24 Sudeste 46 Sudeste 0 -- -- 82
2019-02-15 16:00:00 13.5 25 Sudeste 42 Sudeste 0 -- -- 80
2019-02-15 15:00:00 13.5 25 Sudeste 42 Este 0 -- -- 80
2019-02-15 14:00:00 13.1 23 Sudeste 41 Sudeste 0 -- -- 83
2019-02-15 13:00:00 13.2 26 Sudeste 45 Sudeste 0 -- -- 83
2019-02-15 12:00:00 13 22 Sudeste 40 Sudeste 0 -- -- 80
2019-02-15 11:00:00 13.1 24 Sudeste 37 Sudeste 0 -- -- 77
2019-02-15 10:00:00 13 18 Sudeste 32 Sudeste 0 -- -- 74
2019-02-15 09:00:00 12.6 13 Sudeste 34 Este 0 -- -- 77
2019-02-15 08:00:00 12.6 15 Sudeste 38 Este 0 -- -- 78
2019-02-15 07:00:00 12.8 19 Sudeste 37 Sudeste 0 -- -- 82
2019-02-15 06:00:00 12.9 22 Sudeste 40 Este 0 -- -- 82
2019-02-15 05:00:00 12.7 17 Sudeste 31 Sudeste 0 -- -- 85
2019-02-15 04:00:00 12.5 12 Sudeste 28 Este 0 -- -- 83
2019-02-15 03:00:00 12.7 10 Sudeste 26 Sudeste 0 -- -- 82
2019-02-15 02:00:00 12.5 13 Sudeste 25 Sudeste 0 -- -- 78
2019-02-15 01:00:00 12 10 Sudeste 24 Este 0 -- -- 75
2019-02-15 00:00:00 12.1 12 Sudeste 26 Este 0 -- -- 73
2019-02-14 23:00:00 12.1 13 Sudeste 28 Sudeste 0 -- -- 69
2019-02-14 22:00:00 12.1 13 Sudeste 24 Este 0 -- -- 68
2019-02-14 21:00:00 12.2 11 Sudeste 40 Este 0 -- -- 75
2019-02-14 20:00:00 12.5 22 Sudeste 36 Sudeste 0 -- -- 82
2019-02-14 19:00:00 12.4 19 Sudeste 34 Sudeste 0 -- -- 81
2019-02-14 18:00:00 13.2 24 Sudeste 37 Sudeste 0 -- -- 78
2019-02-14 17:00:00 13.9 20 Sudeste 37 Sudeste 0 -- -- 77
2019-02-14 16:00:00 13.8 23 Sudeste 39 Este 0 -- -- 77
2019-02-14 15:00:00 13.1 23 Sudeste 41 Sudeste 0 -- -- 79
2019-02-14 14:00:00 12.7 23 Sudeste 40 Sudeste 0 -- -- 80
2019-02-14 13:00:00 12.8 23 Sudeste 42 Sudeste 0 -- -- 80
2019-02-14 12:00:00 12.6 23 Sudeste 41 Sudeste 0 -- -- 80
2019-02-14 11:00:00 12.6 24 Sudeste 36 Este 0 -- -- 79
2019-02-14 10:00:00 12.2 14 Sudeste 32 Sudeste 0 -- -- 81
2019-02-14 09:00:00 12 14 Sudeste 45 Sudeste 0 -- -- 81
2019-02-14 08:00:00 12 15 Sudeste 34 Sudeste 0 -- -- 80
2019-02-14 07:00:00 12 15 Sudeste 33 Este 0 -- -- 80
2019-02-14 06:00:00 12 14 Sudeste 30 Este 0 -- -- 81
2019-02-14 05:00:00 12.1 13 Sudeste 27 Este 0 -- -- 82
2019-02-14 04:00:00 12 12 Sudeste 26 Sudeste 0 -- -- 82
2019-02-14 03:00:00 12 9 Este 29 Sudeste 0 -- -- 82
2019-02-14 02:00:00 12.3 13 Sudeste 31 Este 0 -- -- 81
2019-02-14 01:00:00 12.5 12 Sudeste 28 Este 0 -- -- 77
2019-02-14 00:00:00 12.2 13 Este 28 Este 0 -- -- 77
2019-02-13 23:00:00 12 11 Este 27 Sudeste 0 -- -- 78
2019-02-13 22:00:00 12 14 Sudeste 28 Sudeste 0 -- -- 78
2019-02-13 21:00:00 11.8 10 Sudeste 32 Sudeste 0 -- -- 79
2019-02-13 20:00:00 12.4 19 Sudeste 33 Sudeste 0 -- -- 81
2019-02-13 19:00:00 12.6 17 Sudeste 32 Este 0 -- -- 81
2019-02-13 18:00:00 13.5 21 Sudeste 39 Este 0 -- -- 78
2019-02-13 17:00:00 14 24 Sudeste 39 Sudeste 0 -- -- 77
2019-02-13 16:00:00 13.8 20 Sudeste 40 Este 0 -- -- 78
2019-02-13 15:00:00 13.6 24 Sudeste 43 Sudeste 0 -- -- 77
2019-02-13 14:00:00 13.5 25 Sudeste 46 Sudeste 0 -- -- 78
2019-02-13 13:00:00 13.3 23 Sudeste 41 Sudeste 0 -- -- 76
2019-02-13 12:00:00 13 22 Sudeste 37 Sudeste 0 -- -- 78
2019-02-13 11:00:00 12.7 17 Sudeste 34 Este 0 -- -- 78
2019-02-13 10:00:00 12.5 14 Sudeste 30 Sudeste 0 -- -- 76
2019-02-13 09:00:00 11.9 9 Este 25 Este 0 -- -- 76
2019-02-13 08:00:00 11.9 11 Sudeste 29 Este 0 -- -- 78
2019-02-13 07:00:00 12.1 11 Sudeste 30 Este 0 -- -- 78
2019-02-13 06:00:00 12.1 12 Sudeste 28 Este 0 -- -- 78
2019-02-13 05:00:00 12.2 14 Sudeste 29 Este 0 -- -- 78
2019-02-13 04:00:00 12.3 12 Sudeste 32 Este 0 -- -- 79
2019-02-13 03:00:00 12.1 11 Este 32 Sudeste 0 -- -- 80
2019-02-13 02:00:00 12.1 11 Sudeste 28 Sudeste 0 -- -- 79
2019-02-13 01:00:00 12.6 15 Sudeste 33 Sudeste 0 -- -- 75
2019-02-13 00:00:00 12.6 14 Sudeste 30 Este 0 -- -- 69
2019-02-12 23:00:00 12.5 12 Sudeste 31 Este 0 -- -- 67
2019-02-12 22:00:00 12.6 17 Sudeste 28 Sudeste 0 -- -- 69
2019-02-12 21:00:00 12.4 13 Sudeste 32 Sudeste 0 -- -- 70
2019-02-12 20:00:00 12.8 21 Sudeste 42 Este 0 -- -- 79
2019-02-12 19:00:00 13 24 Sudeste 40 Sudeste 0 -- -- 81
2019-02-12 18:00:00 13.7 21 Sudeste 42 Este 0 -- -- 80
2019-02-12 17:00:00 14 21 Sudeste 42 Este 0 -- -- 80
2019-02-12 16:00:00 13.3 24 Sudeste 43 Sudeste 0 -- -- 83
2019-02-12 15:00:00 13.5 21 Sudeste 46 Sudeste 0 -- -- 86
2019-02-12 14:00:00 13.6 21 Sudeste 47 Sudeste 0 -- -- 87
2019-02-12 13:00:00 13.7 25 Sudeste 45 Sudeste 0 -- -- 86
2019-02-12 12:00:00 13.8 27 Sudeste 47 Este 0 -- -- 86
2019-02-12 11:00:00 13.8 22 Sudeste 41 Este 0 -- -- 89
2019-02-12 10:00:00 13.7 17 Sudeste 39 Este 0 -- -- 89
2019-02-12 09:00:00 13.5 17 Sudeste 31 Sudeste 0 -- -- 89
2019-02-12 08:00:00 13.5 10 Este 30 Este 0 -- -- 88
2019-02-12 07:00:00 13.4 11 Este 27 Sudeste 0 -- -- 87
2019-02-12 06:00:00 13.2 9 Este 28 Sudeste 0 -- -- 86
2019-02-12 05:00:00 13.4 17 Sudeste 32 Sudeste 0 -- -- 83
2019-02-12 04:00:00 12.5 3 Sudeste 12 Sudeste 0 -- -- 78
2019-02-12 03:00:00 13 4 Sudeste 11 Sudeste 0 -- -- 80
2019-02-12 02:00:00 12.5 2 Norte 4 Norte 0 -- -- 80
2019-02-12 01:00:00 12.6 0 Calma 4 Noroeste 0 -- -- 82
2019-02-12 00:00:00 13 0 Calma 6 Noroeste 0 -- -- 78
2019-02-11 23:00:00 13.1 0 Calma 6 Noroeste 0 -- -- 79
2019-02-11 22:00:00 13.7 3 Noroeste 5 Este 0 -- -- 72
2019-02-11 21:00:00 13.8 3 Noroeste 5 Noroeste 0 -- -- 71
2019-02-11 20:00:00 14.8 3 Norte 9 Noroeste 0 -- -- 67
2019-02-11 19:00:00 17.5 2 Norte 17 Oeste 0 -- -- 59
2019-02-11 18:00:00 19.9 6 Oeste 17 Noroeste 0 -- -- 53
2019-02-11 17:00:00 19.8 5 Este 10 Sudeste 0 -- -- 54
2019-02-11 16:00:00 19.4 8 Este 13 Sudeste 0 -- -- 58
2019-02-11 15:00:00 19.3 8 Este 12 Este 0 -- -- 57
2019-02-11 14:00:00 18.5 7 Este 19 Sudoeste 0 -- -- 59
2019-02-11 13:00:00 19.3 6 Noroeste 24 Oeste 0 -- -- 60
2019-02-11 12:00:00 18 15 Noroeste 24 Oeste 0 -- -- 68
2019-02-11 11:00:00 16.5 14 Noroeste 26 Noroeste 0 -- -- 74
2019-02-11 10:00:00 15.2 16 Noroeste 33 Noroeste 0 -- -- 74
2019-02-11 09:00:00 13.7 23 Noroeste 31 Noroeste 0 -- -- 79
2019-02-11 08:00:00 13.2 21 Noroeste 35 Norte 0 -- -- 77
2019-02-11 07:00:00 13.3 19 Noroeste 34 Noroeste 0 -- -- 75
2019-02-11 06:00:00 14 18 Noroeste 37 Norte 0 -- -- 72
2019-02-11 05:00:00 13.7 18 Noroeste 37 Noroeste 0 -- -- 72
2019-02-11 04:00:00 13.1 17 Noroeste 38 Norte 0 -- -- 73
2019-02-11 03:00:00 13.4 24 Norte 43 Noroeste 0 -- -- 70
2019-02-11 02:00:00 12.5 22 Noroeste 31 Noroeste 0 -- -- 72
2019-02-11 01:00:00 12.8 20 Noroeste 37 Noroeste 0 -- -- 71
2019-02-11 00:00:00 12.6 19 Noroeste 40 Norte 0 -- -- 71
2019-02-10 23:00:00 12.5 23 Noroeste 35 Noroeste 0 -- -- 72
2019-02-10 22:00:00 12.9 23 Noroeste 32 Noroeste 0 -- -- 70
2019-02-10 21:00:00 13.1 15 Noroeste 22 Oeste 0 -- -- 68
2019-02-10 20:00:00 13.3 13 Noroeste 20 Noroeste 0 -- -- 69
2019-02-10 19:00:00 14.8 14 Noroeste 25 Noroeste 0 -- -- 65
2019-02-10 18:00:00 17.6 17 Noroeste 31 Norte 0 -- -- 56
2019-02-10 17:00:00 18.5 21 Noroeste 40 Norte 0 -- -- 54
2019-02-10 16:00:00 18.3 19 Noroeste 44 Oeste 0 -- -- 57
2019-02-10 15:00:00 18 26 Noroeste 41 Noroeste 0 -- -- 56
2019-02-10 14:00:00 17.4 25 Noroeste 43 Oeste 0 -- -- 58
2019-02-10 13:00:00 16.4 21 Noroeste 44 Oeste 0 -- -- 56
2019-02-10 12:00:00 14.6 21 Noroeste 47 Noroeste 0 -- -- 62
2019-02-10 11:00:00 14.1 19 Norte 33 Noroeste 0 -- -- 63
2019-02-10 10:00:00 11.4 16 Noroeste 37 Noroeste 0 -- -- 67
2019-02-10 09:00:00 11.2 18 Noroeste 33 Norte 0 -- -- 71
2019-02-10 08:00:00 8.8 14 Noroeste 27 Noroeste 0 -- -- 78
2019-02-10 07:00:00 8.8 16 Noroeste 31 Noroeste 0 -- -- 81
2019-02-10 06:00:00 8.9 18 Noroeste 32 Noroeste 0 -- -- 78
2019-02-10 05:00:00 8.2 18 Noroeste 30 Noroeste 0 -- -- 76
2019-02-10 04:00:00 9.1 18 Noroeste 29 Noroeste 0 -- -- 77
2019-02-10 03:00:00 9 18 Noroeste 30 Noroeste 0 -- -- 78
2019-02-10 02:00:00 9.3 13 Noroeste 24 Noroeste 0 -- -- 71
2019-02-10 01:00:00 9.9 14 Noroeste 25 Noroeste 0 -- -- 72
2019-02-10 00:00:00 10.3 18 Noroeste 27 Noroeste 0 -- -- 74
2019-02-09 23:00:00 11 17 Noroeste 21 Noroeste 0 -- -- 77
2019-02-09 22:00:00 12 15 Noroeste 24 Noroeste 0 -- -- 74
2019-02-09 21:00:00 13.2 13 Noroeste 25 Noroeste 0 -- -- 73
2019-02-09 20:00:00 13.6 14 Noroeste 19 Noroeste 0 -- -- 70
2019-02-09 19:00:00 15.6 14 Noroeste 28 Oeste 0 -- -- 58
2019-02-09 18:00:00 18 22 Oeste 28 Oeste 0 -- -- 48
2019-02-09 17:00:00 19.7 17 Oeste 28 Oeste 0 -- -- 42
2019-02-09 16:00:00 19.8 19 Oeste 29 Oeste 0 -- -- 38
2019-02-09 15:00:00 20 13 Oeste 26 Oeste 0 -- -- 40
2019-02-09 14:00:00 18.6 15 Oeste 27 Sudoeste 0 -- -- 48
2019-02-09 13:00:00 17 21 Oeste 31 Oeste 0 -- -- 51
2019-02-09 12:00:00 15.3 18 Noroeste 31 Noroeste 0 -- -- 55
2019-02-09 11:00:00 13.2 20 Noroeste 28 Noroeste 0 -- -- 45
2019-02-09 10:00:00 11.6 15 Noroeste 31 Noroeste 0 -- -- 47
2019-02-09 09:00:00 9.8 22 Noroeste 28 Norte 0 -- -- 51
2019-02-09 08:00:00 9.3 18 Noroeste 30 Noroeste 0 -- -- 52
2019-02-09 07:00:00 10.3 17 Noroeste 24 Noroeste 0 -- -- 55
2019-02-09 06:00:00 10.6 11 Noroeste 20 Noroeste 0 -- -- 51
2019-02-09 05:00:00 10.5 12 Norte 24 Norte 0 -- -- 57
2019-02-09 04:00:00 10.8 18 Norte 26 Norte 0 -- -- 61
2019-02-09 03:00:00 10.2 8 Noroeste 21 Noroeste 0 -- -- 68
2019-02-09 02:00:00 9.7 19 Noroeste 26 Noroeste 0 -- -- 79
2019-02-09 01:00:00 10.8 14 Noroeste 27 Noroeste 0 -- -- 81
2019-02-09 00:00:00 11.2 18 Noroeste 25 Noroeste 0 -- -- 82
2019-02-08 23:00:00 11.9 14 Norte 20 Norte 0 -- -- 84
2019-02-08 22:00:00 12.2 9 Norte 19 Noroeste 0 -- -- 83
2019-02-08 21:00:00 11.5 6 Noroeste 11 Noroeste 0 -- -- 82
2019-02-08 20:00:00 12.2 4 Noroeste 6 Norte 0 -- -- 82
2019-02-08 19:00:00 14.1 0 Calma 6 Sudeste 0 -- -- 79
2019-02-08 18:00:00 15.6 4 Sur 9 Sur 0 -- -- 79
2019-02-08 17:00:00 16.1 5 Este 11 Sudeste 0 -- -- 77
2019-02-08 16:00:00 16.2 6 Sur 15 Sudeste 0 -- -- 77
2019-02-08 15:00:00 17.4 7 Sur 15 Sudeste 0 -- -- 74
2019-02-08 14:00:00 16.6 5 Sur 13 Sur 0 -- -- 76
2019-02-08 13:00:00 15.8 6 Sudeste 16 Sur 0 -- -- 76
2019-02-08 12:00:00 15.9 8 Sur 15 Sur 0 -- -- 75
2019-02-08 11:00:00 14.7 6 Noroeste 12 Noroeste 0 -- -- 61
2019-02-08 10:00:00 13.1 7 Noroeste 12 Noroeste 0 -- -- 61
2019-02-08 09:00:00 10.4 8 Noroeste 15 Noroeste 0 -- -- 84
2019-02-08 08:00:00 10 7 Noroeste 9 Noroeste 0 -- -- 88
2019-02-08 07:00:00 11.4 4 Norte 8 Nordeste 0 -- -- 85
2019-02-08 06:00:00 11.9 5 Nordeste 9 Nordeste 0 -- -- 75
2019-02-08 05:00:00 11.7 5 Nordeste 10 Este 0 -- -- 67
2019-02-08 04:00:00 11.5 3 Norte 13 Noroeste 0 -- -- 61
2019-02-08 03:00:00 11.3 9 Noroeste 20 Noroeste 0 -- -- 59
2019-02-08 02:00:00 11.7 15 Noroeste 21 Noroeste 0 -- -- 58
2019-02-08 01:00:00 12.1 11 Noroeste 21 Noroeste 0 -- -- 60
2019-02-08 00:00:00 13.2 17 Noroeste 23 Noroeste 0 -- -- 58
2019-02-07 23:00:00 13.7 16 Noroeste 28 Noroeste 0 -- -- 58
2019-02-07 22:00:00 14.1 21 Noroeste 31 Noroeste 0 -- -- 60
2019-02-07 21:00:00 14.7 21 Noroeste 27 Noroeste 0 -- -- 61
2019-02-07 20:00:00 15.4 17 Noroeste 29 Norte 0 -- -- 62
2019-02-07 19:00:00 16.8 18 Noroeste 28 Norte 0 -- -- 59
2019-02-07 18:00:00 19.2 19 Noroeste 35 Noroeste 0 -- -- 53
2019-02-07 17:00:00 20.8 26 Noroeste 37 Oeste 0 -- -- 46
2019-02-07 16:00:00 21.7 24 Noroeste 34 Oeste 0 -- -- 42
2019-02-07 15:00:00 22.1 19 Oeste 34 Noroeste 0 -- -- 44
2019-02-07 14:00:00 21.1 22 Noroeste 29 Oeste 0 -- -- 45
2019-02-07 13:00:00 19.4 18 Noroeste 31 Noroeste 0 -- -- 53
2019-02-07 12:00:00 17.5 22 Noroeste 32 Noroeste 0 -- -- 55
2019-02-07 11:00:00 15.9 18 Noroeste 27 Oeste 0 -- -- 57
2019-02-07 10:00:00 14.1 17 Noroeste 26 Noroeste 0 -- -- 61
2019-02-07 09:00:00 12.6 16 Noroeste 23 Norte 0 -- -- 64
2019-02-07 08:00:00 12.2 12 Noroeste 21 Noroeste 0 -- -- 65
2019-02-07 07:00:00 11.4 4 Norte 12 Noroeste 0 -- -- 66
2019-02-07 06:00:00 11.7 4 Nordeste 16 Noroeste 0 -- -- 65
2019-02-07 05:00:00 11.5 11 Noroeste 21 Noroeste 0 -- -- 68
2019-02-07 04:00:00 10.5 0 Calma 9 Noroeste 0 -- -- 74
2019-02-07 03:00:00 10.4 2 Noroeste 5 Noroeste 0 -- -- 74
2019-02-07 02:00:00 10.5 5 Noroeste 8 Noroeste 0 -- -- 75
2019-02-07 01:00:00 10.7 4 Noroeste 7 Norte 0 -- -- 73
2019-02-07 00:00:00 11.5 2 Noroeste 12 Norte 0 -- -- 71
2019-02-06 23:00:00 12.3 5 Norte 15 Noroeste 0 -- -- 67
2019-02-06 22:00:00 12.2 8 Noroeste 16 Noroeste 0 -- -- 68
2019-02-06 21:00:00 11.3 9 Noroeste 13 Noroeste 0 -- -- 64
2019-02-06 20:00:00 11 3 Norte 6 Noroeste 0 -- -- 62
2019-02-06 19:00:00 13.4 4 Noroeste 6 Noroeste 0 -- -- 66
2019-02-06 18:00:00 16.1 4 Sur 10 Sur 0 -- -- 60
2019-02-06 17:00:00 18 5 Sur 13 Sudeste 0 -- -- 46
2019-02-06 16:00:00 18.6 5 Sur 11 Sur 0 -- -- 44
2019-02-06 15:00:00 17.8 5 Sur 13 Sudeste 0 -- -- 44
2019-02-06 14:00:00 16.7 5 Sur 12 Sudeste 0 -- -- 53
2019-02-06 13:00:00 15.8 4 Sur 10 Sudeste 0 -- -- 65
2019-02-06 12:00:00 14.4 4 Sudeste 10 Sudeste 0 -- -- 66
2019-02-06 11:00:00 13.5 3 Sur 8 Sur 0 -- -- 82
2019-02-06 10:00:00 12.2 2 Nordeste 4 Norte 0 -- -- 90
2019-02-06 09:00:00 9.3 2 Norte 4 Noroeste 0 -- -- 93
2019-02-06 08:00:00 8.8 4 Noroeste 6 Noroeste 0 -- -- 91
2019-02-06 07:00:00 8.9 4 Noroeste 10 Noroeste 0 -- -- 92
2019-02-06 06:00:00 9 4 Noroeste 9 Norte 0 -- -- 92
2019-02-06 05:00:00 10 5 Norte 6 Norte 0 -- -- 90
2019-02-06 04:00:00 10.1 4 Nordeste 5 Nordeste 0 -- -- 89
2019-02-06 03:00:00 10.1 4 Norte -- -- 0 -- -- 86
2019-02-06 02:00:00 9.7 3 Norte 5 Nordeste 0 -- -- 86
2019-02-06 01:00:00 9.7 4 Norte 6 Norte 0 -- -- 82
2019-02-06 00:00:00 9.7 4 Norte 7 Noroeste 0 -- -- 79
2019-02-05 23:00:00 10.1 3 Norte 8 Nordeste 0 -- -- 81
2019-02-05 22:00:00 11 5 Norte 6 Norte 0 -- -- 80
2019-02-05 21:00:00 11.6 2 Oeste 13 Noroeste 0 -- -- 76
2019-02-05 20:00:00 11.4 9 Noroeste 13 Noroeste 0 -- -- 77
2019-02-05 19:00:00 13.2 4 Noroeste 7 Sur 0 -- -- 70
2019-02-05 18:00:00 15.5 4 Sur 6 Sur 0 -- -- 64
2019-02-05 17:00:00 17 4 Sur 13 Sudoeste 0 -- -- 57
2019-02-05 16:00:00 16.7 6 Sur 15 Sur 0 -- -- 60
2019-02-05 15:00:00 16 7 Sur 16 Sudoeste 0 -- -- 63
2019-02-05 14:00:00 15.1 6 Sur 16 Sur 0 -- -- 68
2019-02-05 13:00:00 14.7 7 Sudeste 15 Sudeste 0 -- -- 66
2019-02-05 12:00:00 13.8 6 Sudeste 11 Sur 0 -- -- 66
2019-02-05 11:00:00 13 3 Sur 9 Sur 0 -- -- 71
2019-02-05 10:00:00 11.8 3 Nordeste 4 Norte 0 -- -- 74
2019-02-05 09:00:00 7.9 4 Norte 7 Norte 0 -- -- 86
2019-02-05 08:00:00 7.7 3 Noroeste 10 Noroeste 0 -- -- 84
2019-02-05 07:00:00 7.9 4 Noroeste 7 Noroeste 0 -- -- 82
2019-02-05 06:00:00 7.6 3 Norte 8 Noroeste 0 -- -- 83
2019-02-05 05:00:00 7.7 4 Norte 7 Noroeste 0 -- -- 81
2019-02-05 04:00:00 7.7 4 Norte 7 Noroeste 0 -- -- 81
2019-02-05 03:00:00 8 4 Noroeste 8 Norte 0 -- -- 80
2019-02-05 02:00:00 7.8 4 Norte 8 Noroeste 0 -- -- 80
2019-02-05 01:00:00 8 4 Norte 8 Noroeste 0 -- -- 78
2019-02-05 00:00:00 8.1 3 Norte 5 Noroeste 0 -- -- 77
2019-02-04 23:00:00 8 4 Norte 10 Noroeste 0 -- -- 69
2019-02-04 22:00:00 8.5 9 Noroeste 12 Noroeste 0 -- -- 74
2019-02-04 21:00:00 8.9 3 Oeste 5 Noroeste 0 -- -- 66
2019-02-04 20:00:00 9.4 3 Norte 5 Noroeste 0 -- -- 62
2019-02-04 19:00:00 11.4 2 Oeste 6 Sur 0 -- -- 67
2019-02-04 18:00:00 13.7 4 Sur 12 Sur 0 -- -- 56
2019-02-04 17:00:00 15.3 6 Sur 15 Sur 0 -- -- 50
2019-02-04 16:00:00 15.4 8 Sur 19 Sur 0 -- -- 46
2019-02-04 15:00:00 14.8 10 Sur 18 Sur 0 -- -- 48
2019-02-04 14:00:00 14.3 8 Sur 18 Sur 0 -- -- 47
2019-02-04 13:00:00 13.6 13 Sur 20 Sur 0 -- -- 50
2019-02-04 12:00:00 12.8 8 Sudoeste 18 Sudoeste 0 -- -- 52
2019-02-04 11:00:00 11.9 6 Sudoeste 12 Sudoeste 0 -- -- 52
2019-02-04 10:00:00 10.4 9 Noroeste 15 Noroeste 0 -- -- 47
2019-02-04 09:00:00 7.3 11 Noroeste 14 Noroeste 0 -- -- 54
2019-02-04 08:00:00 6.2 11 Noroeste 14 Noroeste 0 -- -- 57
2019-02-04 07:00:00 6.4 10 Noroeste 15 Noroeste 0 -- -- 57
2019-02-04 06:00:00 6.9 12 Noroeste 15 Noroeste 0 -- -- 56
2019-02-04 05:00:00 6.6 11 Noroeste 14 Noroeste 0 -- -- 57
2019-02-04 04:00:00 7.4 3 Noroeste 9 Oeste 0 -- -- 55
2019-02-04 03:00:00 7.4 5 Norte 11 Noroeste 0 -- -- 55
2019-02-04 02:00:00 7.6 5 Norte 10 Noroeste 0 -- -- 51
2019-02-04 01:00:00 7.6 5 Noroeste 13 Norte 0 -- -- 54
2019-02-04 00:00:00 7.3 6 Noroeste 19 Noroeste 0 -- -- 56
2019-02-03 23:00:00 8.1 15 Noroeste 24 Noroeste 0 -- -- 57
2019-02-03 22:00:00 8.4 15 Noroeste 23 Noroeste 0 -- -- 53
2019-02-03 21:00:00 9.8 14 Noroeste 21 Norte 0 -- -- 48
2019-02-03 20:00:00 11 16 Norte 29 Noroeste 0 -- -- 42
2019-02-03 19:00:00 11.8 14 Norte 22 Norte 0 -- -- 41
2019-02-03 18:00:00 13.9 14 Norte 28 Oeste 0 -- -- 39
2019-02-03 17:00:00 14.5 15 Oeste 28 Sudoeste 0 -- -- 49
2019-02-03 16:00:00 15.1 13 Oeste 27 Oeste 0 -- -- 45
2019-02-03 15:00:00 14.7 12 Oeste 25 Oeste 0 -- -- 46
2019-02-03 14:00:00 13.5 11 Oeste 21 Oeste 0 -- -- 41
2019-02-03 13:00:00 12.3 13 Noroeste 23 Oeste 0 -- -- 44
2019-02-03 12:00:00 11 16 Oeste 28 Sudoeste 0 -- -- 52
2019-02-03 11:00:00 10.4 21 Norte 34 Noroeste 0 -- -- 44
2019-02-03 10:00:00 8.8 27 Norte 40 Norte 0 -- -- 52
2019-02-03 09:00:00 6.6 21 Norte 31 Norte 0 -- -- 60
2019-02-03 08:00:00 5.2 17 Noroeste 25 Noroeste 0 -- -- 68
2019-02-03 07:00:00 5.1 10 Noroeste 16 Noroeste 0 -- -- 66
2019-02-03 06:00:00 5.3 14 Noroeste 23 Noroeste 0 -- -- 67
2019-02-03 05:00:00 5.6 18 Noroeste 23 Noroeste 0 -- -- 66
2019-02-03 04:00:00 6.5 17 Noroeste 23 Noroeste 0 -- -- 63
2019-02-03 03:00:00 6.6 17 Noroeste 24 Noroeste 0 -- -- 63
2019-02-03 02:00:00 6.6 17 Noroeste 27 Noroeste 0 -- -- 66
2019-02-03 01:00:00 7.4 15 Noroeste 21 Noroeste 0 -- -- 61
2019-02-03 00:00:00 8.1 13 Noroeste 22 Oeste 0 -- -- 56
2019-02-02 23:00:00 7.4 10 Noroeste 17 Oeste 0 -- -- 63
2019-02-02 22:00:00 8.8 8 Oeste 19 Oeste 0 -- -- 60
2019-02-02 21:00:00 9 10 Sudoeste 19 Sur 0 -- -- 60
2019-02-02 20:00:00 9.6 2 Sudoeste 24 Noroeste 0 -- -- 57
2019-02-02 19:00:00 10.9 11 Noroeste 34 Oeste 0 -- -- 52
2019-02-02 18:00:00 12.5 15 Noroeste 45 Noroeste 0 -- -- 48
2019-02-02 17:00:00 14.2 25 Norte 48 Norte 0 -- -- 43
2019-02-02 16:00:00 13.7 21 Noroeste 53 Norte 0 -- -- 44
2019-02-02 15:00:00 14 24 Norte 54 Noroeste 0 -- -- 48
2019-02-02 14:00:00 12.9 28 Norte 59 Noroeste 0 -- -- 52
2019-02-02 13:00:00 11.7 36 Norte 62 Norte 0 -- -- 55
2019-02-02 12:00:00 11 36 Norte 60 Norte 0 -- -- 58
2019-02-02 11:00:00 10.2 27 Norte 54 Norte 0 -- -- 63
2019-02-02 10:00:00 9.9 24 Norte 46 Norte 0 -- -- 67
2019-02-02 09:00:00 9.5 22 Norte 45 Norte 0 -- -- 71
2019-02-02 08:00:00 9.8 19 Noroeste 37 Oeste 0 -- -- 70
2019-02-02 07:00:00 9.8 15 Noroeste 42 Noroeste 0 -- -- 71
2019-02-02 06:00:00 9.7 13 Oeste 30 Oeste 0 -- -- 77
2019-02-02 05:00:00 9.4 17 Oeste 30 Noroeste 0 -- -- 77
2019-02-02 04:00:00 9.2 10 Oeste 21 Oeste 0 -- -- 78
2019-02-02 03:00:00 9.2 13 Oeste 21 Oeste 0 -- -- 78
2019-02-02 02:00:00 9.2 9 Noroeste 36 Noroeste 0 -- -- 75
2019-02-02 01:00:00 9.4 16 Noroeste 39 Noroeste 0 -- -- 73
2019-02-02 00:00:00 10.2 22 Noroeste 46 Oeste 0 -- -- 69
2019-02-01 23:00:00 11.1 19 Noroeste 44 Noroeste 0 -- -- 67
2019-02-01 22:00:00 11.4 14 Noroeste 37 Noroeste 0 -- -- 69
2019-02-01 21:00:00 11.8 15 Noroeste 45 Oeste 0 -- -- 73
2019-02-01 20:00:00 12.4 30 Oeste 54 Oeste 0 -- -- 71
2019-02-01 19:00:00 12.7 27 Oeste 51 Noroeste 0 -- -- 67
2019-02-01 18:00:00 13.5 26 Oeste 50 Oeste 0 -- -- 65
2019-02-01 17:00:00 14.4 32 Oeste 53 Oeste 0 -- -- 60
2019-02-01 16:00:00 15.2 32 Noroeste 57 Noroeste 0 -- -- 56
2019-02-01 15:00:00 15 27 Noroeste 63 Noroeste 0 -- -- 60
2019-02-01 14:00:00 14.3 27 Noroeste 53 Noroeste 0 -- -- 69
2019-02-01 13:00:00 14.4 29 Noroeste 53 Norte 0 -- -- 66
2019-02-01 12:00:00 13 23 Noroeste 50 Norte 0 -- -- 82
2019-02-01 11:00:00 11.2 21 Norte 49 Noroeste 0 -- -- 92
2019-02-01 10:00:00 10.7 21 Norte 48 Oeste 6.4 -- -- 96
2019-02-01 09:00:00 13.9 26 Oeste 60 Oeste 4 -- -- 96
2019-02-01 08:00:00 13.8 30 Oeste 59 Sudoeste 5.2 -- -- 95
2019-02-01 07:00:00 14 36 Oeste 68 Oeste 1.2 -- -- 91
2019-02-01 06:00:00 13.9 25 Oeste 62 Oeste 0.8 -- -- 91
2019-02-01 05:00:00 13.8 20 Oeste 53 Oeste 0.4 -- -- 92
2019-02-01 04:00:00 13.9 29 Oeste 51 Oeste 0.4 -- -- 91
2019-02-01 03:00:00 14.1 22 Oeste 53 Oeste 0.2 -- -- 90
2019-02-01 02:00:00 14.4 31 Oeste 54 Oeste 0 -- -- 86
2019-02-01 01:00:00 14 24 Oeste 49 Oeste 0 -- -- 89
2019-02-01 00:00:00 13.3 22 Oeste 42 Oeste 0.2 -- -- 92
2019-01-31 23:00:00 13.5 22 Oeste 46 Oeste 0 -- -- 88
2019-01-31 22:00:00 13.4 18 Oeste 33 Oeste 0 -- -- 87
2019-01-31 21:00:00 13.3 17 Oeste 28 Oeste 0 -- -- 89
2019-01-31 20:00:00 13.7 14 Oeste 38 Oeste 0 -- -- 85
2019-01-31 19:00:00 14.1 18 Oeste 40 Oeste 0 -- -- 81
2019-01-31 18:00:00 14.7 23 Oeste 47 Sudoeste 0.2 -- -- 78
2019-01-31 17:00:00 14 12 Oeste 49 Oeste 0 -- -- 87
2019-01-31 16:00:00 14.2 21 Oeste 45 Noroeste 0 -- -- 85
2019-01-31 15:00:00 14.3 26 Oeste 50 Oeste 0 -- -- 86
2019-01-31 14:00:00 13.8 14 Noroeste 35 Oeste 0 -- -- 93
2019-01-31 13:00:00 13.3 23 Noroeste 36 Noroeste 0 -- -- 91
2019-01-31 12:00:00 12.8 22 Noroeste 41 Noroeste 0 -- -- 94
2019-01-31 11:00:00 13.1 17 Noroeste 35 Oeste 0 -- -- 94
2019-01-31 10:00:00 13.1 10 Oeste 23 Oeste 0.4 -- -- 96
2019-01-31 09:00:00 12.8 14 Oeste 33 Oeste 3 -- -- 95
2019-01-31 08:00:00 12.8 14 Oeste 23 Oeste 0.2 -- -- 94
2019-01-31 07:00:00 12.6 13 Sudoeste 24 Oeste 0 -- -- 94
2019-01-31 06:00:00 12.6 13 Oeste 27 Oeste 0.8 -- -- 94
2019-01-31 05:00:00 12.7 17 Oeste 27 Noroeste 0.8 -- -- 93
2019-01-31 04:00:00 12.8 13 Oeste 25 Oeste 0.6 -- -- 92
2019-01-31 03:00:00 12.9 14 Oeste 23 Oeste 0.2 -- -- 92
2019-01-31 02:00:00 12.8 13 Oeste 27 Oeste 0 -- -- 91
2019-01-31 01:00:00 12.5 11 Noroeste 22 Oeste 0 -- -- 93
2019-01-31 00:00:00 12.4 12 Oeste 22 Oeste 0.8 -- -- 95
2019-01-30 23:00:00 12.1 9 Noroeste 17 Oeste 0.2 -- -- 95
2019-01-30 22:00:00 12.1 11 Noroeste 27 Norte 0.8 -- -- 94
2019-01-30 21:00:00 12.2 11 Noroeste 23 Noroeste 0.8 -- -- 92
2019-01-30 20:00:00 13 14 Noroeste 30 Norte 0 -- -- 82
2019-01-30 19:00:00 13.6 20 Norte 37 Noroeste 0 -- -- 75
2019-01-30 18:00:00 14 19 Noroeste 35 Norte 0 -- -- 71
2019-01-30 17:00:00 15 18 Norte 33 Norte 0 -- -- 65
2019-01-30 16:00:00 16 21 Noroeste 36 Oeste 0 -- -- 59
2019-01-30 15:00:00 17.2 17 Noroeste 38 Oeste 0 -- -- 54
2019-01-30 14:00:00 16.1 21 Norte 36 Norte 0 -- -- 57
2019-01-30 13:00:00 15.3 19 Noroeste 37 Noroeste 0 -- -- 62
2019-01-30 12:00:00 14.4 21 Norte 39 Noroeste 0 -- -- 72
2019-01-30 11:00:00 13.4 14 Norte 30 Norte 0 -- -- 85
2019-01-30 10:00:00 12 10 Noroeste 24 Oeste 0 -- -- 94
2019-01-30 09:00:00 11.6 15 Oeste 31 Oeste 0.6 -- -- 95
2019-01-30 08:00:00 11.6 17 Oeste 32 Oeste 0.4 -- -- 94
2019-01-30 07:00:00 11.8 17 Oeste 37 Noroeste 0 -- -- 90
2019-01-30 06:00:00 11.8 17 Oeste 30 Oeste 0 -- -- 86
2019-01-30 05:00:00 11.8 16 Oeste 30 Oeste 0 -- -- 84
2019-01-30 04:00:00 11.7 9 Oeste 35 Noroeste 0 -- -- 79
2019-01-30 03:00:00 11.7 16 Noroeste 41 Norte 0 -- -- 79
2019-01-30 02:00:00 12.1 26 Norte 45 Noroeste 0 -- -- 76
2019-01-30 01:00:00 12.3 21 Noroeste 35 Noroeste 0 -- -- 75
2019-01-30 00:00:00 12.9 22 Noroeste 41 Noroeste 0 -- -- 72
2019-01-29 23:00:00 13.5 17 Noroeste 35 Oeste 0 -- -- 76
2019-01-29 22:00:00 13.4 23 Oeste 35 Oeste 0 -- -- 81
2019-01-29 21:00:00 13.2 18 Oeste 32 Oeste 0 -- -- 82
2019-01-29 20:00:00 13.3 17 Oeste 31 Oeste 0 -- -- 79
2019-01-29 19:00:00 13.1 15 Oeste 32 Oeste 0 -- -- 80
2019-01-29 18:00:00 13 20 Oeste 34 Oeste 0 -- -- 79
2019-01-29 17:00:00 13.1 19 Noroeste 32 Oeste 0 -- -- 77
2019-01-29 16:00:00 13 14 Noroeste 50 Norte 0 -- -- 75
2019-01-29 15:00:00 13.2 33 Noroeste 66 Norte 0 -- -- 73
2019-01-29 14:00:00 14.4 29 Noroeste 66 Noroeste 0 -- -- 66
2019-01-29 13:00:00 13.5 22 Noroeste 51 Noroeste 0 -- -- 66
2019-01-29 12:00:00 13.3 28 Noroeste 55 Oeste 0 -- -- 67
2019-01-29 11:00:00 12.8 25 Norte 50 Noroeste 0 -- -- 70
2019-01-29 10:00:00 12.3 29 Norte 44 Noroeste 0 -- -- 73
2019-01-29 09:00:00 11.3 21 Noroeste 45 Noroeste 0 -- -- 78
2019-01-29 08:00:00 11.3 31 Noroeste 48 Noroeste 0 -- -- 80
2019-01-29 07:00:00 11 30 Noroeste 48 Noroeste 0 -- -- 82
2019-01-29 06:00:00 10.8 24 Noroeste 38 Noroeste 0 -- -- 83
2019-01-29 05:00:00 11.1 22 Noroeste 41 Noroeste 0 -- -- 82
2019-01-29 04:00:00 10.9 14 Noroeste 52 Norte 0 -- -- 83
2019-01-29 03:00:00 11.6 31 Norte 49 Norte 0 -- -- 81
2019-01-29 02:00:00 11.7 23 Noroeste 40 Noroeste 0 -- -- 80
2019-01-29 01:00:00 11.5 17 Noroeste 25 Norte 0 -- -- 79
2019-01-29 00:00:00 11.5 9 Sudoeste 22 Oeste 0 -- -- 77
2019-01-28 23:00:00 11.8 9 Oeste 26 Oeste 0 -- -- 75
2019-01-28 22:00:00 12 14 Sudoeste 37 Noroeste 0 -- -- 74
2019-01-28 21:00:00 12.9 18 Noroeste 39 Noroeste 0 -- -- 69
2019-01-28 20:00:00 13.1 15 Noroeste 33 Noroeste 0 -- -- 73
2019-01-28 19:00:00 12.9 15 Oeste 41 Oeste 0 -- -- 72
2019-01-28 18:00:00 14 19 Oeste 40 Noroeste 0 -- -- 62
2019-01-28 17:00:00 15.3 22 Noroeste 43 Oeste 0 -- -- 54
2019-01-28 16:00:00 15.2 27 Noroeste 55 Oeste 0 -- -- 52
2019-01-28 15:00:00 15.5 35 Noroeste 49 Oeste 0 -- -- 51
2019-01-28 14:00:00 15.6 29 Noroeste 49 Oeste 0 -- -- 51
2019-01-28 13:00:00 15 24 Noroeste 47 Oeste 0 -- -- 52
2019-01-28 12:00:00 13.5 21 Noroeste 36 Noroeste 0 -- -- 53
2019-01-28 11:00:00 12 20 Norte 37 Noroeste 0 -- -- 55
2019-01-28 10:00:00 10.1 19 Noroeste 37 Noroeste 0 -- -- 61
2019-01-28 09:00:00 8.6 13 Noroeste 33 Noroeste 0 -- -- 69
2019-01-28 08:00:00 7.8 15 Noroeste 28 Oeste 0 -- -- 74
2019-01-28 07:00:00 8.5 18 Noroeste 29 Noroeste 0 -- -- 70
2019-01-28 06:00:00 9.2 19 Noroeste 31 Noroeste 0 -- -- 68
2019-01-28 05:00:00 9.6 17 Noroeste 30 Noroeste 0 -- -- 67
2019-01-28 04:00:00 9.4 18 Noroeste 38 Norte 0 -- -- 69
2019-01-28 03:00:00 10.5 35 Norte 49 Norte 0 -- -- 65
2019-01-28 02:00:00 10.1 12 Noroeste 43 Noroeste 0 -- -- 69
2019-01-28 01:00:00 10.7 24 Noroeste 43 Noroeste 0 -- -- 67
2019-01-28 00:00:00 10.3 19 Noroeste 32 Noroeste 0 -- -- 70
2019-01-27 23:00:00 10.7 18 Noroeste 37 Noroeste 0 -- -- 69
2019-01-27 22:00:00 11 15 Noroeste 26 Oeste 0 -- -- 68
2019-01-27 21:00:00 11.4 8 Noroeste 20 Oeste 0 -- -- 67
2019-01-27 20:00:00 12.3 11 Oeste 30 Norte 0 -- -- 66
2019-01-27 19:00:00 13.1 13 Noroeste 41 Oeste 0 -- -- 64
2019-01-27 18:00:00 14.2 21 Noroeste 38 Oeste 0 -- -- 62
2019-01-27 17:00:00 14.5 13 Noroeste 37 Oeste 0 -- -- 64
2019-01-27 16:00:00 16.1 18 Oeste 42 Oeste 0 -- -- 59
2019-01-27 15:00:00 15.1 32 Oeste 50 Oeste 0 -- -- 63
2019-01-27 14:00:00 14.9 37 Oeste 59 Oeste 0 -- -- 68
2019-01-27 13:00:00 14.6 40 Noroeste 57 Noroeste 0 -- -- 71
2019-01-27 12:00:00 14.9 32 Oeste 48 Oeste 0 -- -- 68
2019-01-27 11:00:00 14.7 26 Oeste 41 Oeste 0 -- -- 72
2019-01-27 10:00:00 13.4 19 Noroeste 34 Oeste 0 -- -- 80
2019-01-27 09:00:00 12 14 Noroeste 36 Noroeste 0 -- -- 85
2019-01-27 08:00:00 11.7 19 Noroeste 32 Oeste 0 -- -- 85
2019-01-27 07:00:00 10.4 15 Noroeste 31 Noroeste 0 -- -- 84
2019-01-27 06:00:00 10 17 Noroeste 33 Noroeste 0 -- -- 84
2019-01-27 05:00:00 10.7 24 Noroeste 39 Noroeste 0 -- -- 84
2019-01-27 04:00:00 10.3 15 Noroeste 32 Oeste 0 -- -- 88
2019-01-27 03:00:00 10.5 22 Noroeste 34 Noroeste 0 -- -- 88
2019-01-27 02:00:00 10.9 23 Noroeste 41 Oeste 0 -- -- 89
2019-01-27 01:00:00 11.3 29 Noroeste 40 Noroeste 0 -- -- 89
2019-01-27 00:00:00 11.5 26 Noroeste 40 Noroeste 0 -- -- 90
2019-01-26 23:00:00 12.2 13 Noroeste 30 Noroeste 0 -- -- 88
2019-01-26 22:00:00 13.1 17 Noroeste 24 Noroeste 0 -- -- 85
2019-01-26 21:00:00 13.8 17 Noroeste 26 Noroeste 0 -- -- 85
2019-01-26 20:00:00 13.5 10 Noroeste 14 Noroeste 0 -- -- 81
2019-01-26 19:00:00 14.3 2 Oeste 5 Sudoeste 0 -- -- 78
2019-01-26 18:00:00 16.4 4 Sur 8 Sudoeste 0 -- -- 75
2019-01-26 17:00:00 17.6 3 Sudeste 11 Sur 0 -- -- 66
2019-01-26 16:00:00 17.4 6 Este 13 Sudeste 0 -- -- 67
2019-01-26 15:00:00 17.9 6 Este 13 Este 0 -- -- 58
2019-01-26 14:00:00 17.1 8 Sudeste 16 Sudeste 0 -- -- 55
2019-01-26 13:00:00 17.4 9 Sudeste 15 Sudoeste 0 -- -- 53
2019-01-26 12:00:00 17.2 6 Sur 14 Sudoeste 0 -- -- 54
2019-01-26 11:00:00 15.9 3 Sudoeste 7 Sudoeste 0 -- -- 62
2019-01-26 10:00:00 15.1 3 Norte 6 Nordeste 0 -- -- 58
2019-01-26 09:00:00 11.7 0 Calma 6 Noroeste 0 -- -- 66
2019-01-26 08:00:00 11.7 3 Norte 6 Noroeste 0 -- -- 65
2019-01-26 07:00:00 12.1 4 Norte 6 Norte 0 -- -- 64
2019-01-26 06:00:00 12.3 3 Noroeste 8 Noroeste 0 -- -- 63
2019-01-26 05:00:00 12.4 5 Norte 10 Noroeste 0 -- -- 65
2019-01-26 04:00:00 12.8 4 Norte 7 Noroeste 0 -- -- 64
2019-01-26 03:00:00 13.6 5 Norte 15 Noroeste 0 -- -- 61
2019-01-26 02:00:00 13.4 8 Noroeste 12 Noroeste 0 -- -- 60
2019-01-26 01:00:00 13.7 4 Norte 8 Noroeste 0 -- -- 59
2019-01-26 00:00:00 13.6 4 Norte 8 Norte 0 -- -- 58
2019-01-25 23:00:00 14 6 Noroeste 16 Noroeste 0 -- -- 56
2019-01-25 22:00:00 14.1 5 Noroeste 13 Noroeste 0 -- -- 59
2019-01-25 21:00:00 15 3 Norte 10 Noroeste 0 -- -- 57
2019-01-25 20:00:00 15.4 5 Noroeste 12 Noroeste 0 -- -- 58
2019-01-25 19:00:00 17.9 4 Norte 7 Noroeste 0 -- -- 52
2019-01-25 18:00:00 21.3 3 Este 13 Sudeste 0 -- -- 39
2019-01-25 17:00:00 23.8 5 Sudoeste 10 Sudoeste 0 -- -- 41
2019-01-25 16:00:00 23.3 5 Sudeste 10 Sudeste 0 -- -- 40
2019-01-25 15:00:00 22 5 Este 15 Sudeste 0 -- -- 43
2019-01-25 14:00:00 20.2 8 Sudeste 17 Este 0 -- -- 54
2019-01-25 13:00:00 20.9 3 Sudeste 14 Norte 0 -- -- 50
2019-01-25 12:00:00 19.3 10 Noroeste 17 Noroeste 0 -- -- 55
2019-01-25 11:00:00 18.2 4 Sudoeste 9 Sudoeste 0 -- -- 54
2019-01-25 10:00:00 16.8 4 Nordeste 9 Norte 0 -- -- 56
2019-01-25 09:00:00 13.5 8 Noroeste 21 Noroeste 0 -- -- 67
2019-01-25 08:00:00 12.5 11 Noroeste 16 Noroeste 0 -- -- 70
2019-01-25 07:00:00 13.1 9 Noroeste 25 Noroeste 0 -- -- 67
2019-01-25 06:00:00 12.9 14 Noroeste 21 Noroeste 0 -- -- 72
2019-01-25 05:00:00 13.3 14 Noroeste 26 Noroeste 0 -- -- 69
2019-01-25 04:00:00 13 17 Noroeste 27 Noroeste 0 -- -- 74
2019-01-25 03:00:00 13.5 16 Noroeste 29 Noroeste 0 -- -- 72
2019-01-25 02:00:00 13.2 23 Noroeste 33 Noroeste 0 -- -- 75
2019-01-25 01:00:00 13.9 18 Noroeste 39 Noroeste 0 -- -- 71
2019-01-25 00:00:00 13.4 22 Noroeste 41 Noroeste 0 -- -- 73
2019-01-24 23:00:00 14.7 19 Noroeste 35 Norte 0 -- -- 68
2019-01-24 22:00:00 14.7 19 Noroeste 38 Norte 0 -- -- 67
2019-01-24 21:00:00 14.8 26 Norte 35 Norte 0 -- -- 68
2019-01-24 20:00:00 14.7 26 Noroeste 42 Norte 0 -- -- 70
2019-01-24 19:00:00 15.4 29 Noroeste 42 Norte 0 -- -- 67
2019-01-24 18:00:00 16.7 27 Norte 44 Noroeste 0 -- -- 63
2019-01-24 17:00:00 18.6 24 Noroeste 41 Norte 0 -- -- 58
2019-01-24 16:00:00 18.2 25 Noroeste 43 Noroeste 0 -- -- 58
2019-01-24 15:00:00 17.7 32 Noroeste 48 Noroeste 0 -- -- 61
2019-01-24 14:00:00 17.4 23 Oeste 39 Oeste 0 -- -- 62
2019-01-24 13:00:00 16.1 26 Oeste 39 Noroeste 0 -- -- 68
2019-01-24 12:00:00 14.6 27 Noroeste 48 Noroeste 0 -- -- 73
2019-01-24 11:00:00 14 28 Noroeste 52 Noroeste 0 -- -- 76
2019-01-24 10:00:00 13.2 19 Norte 57 Norte 0 -- -- 78
2019-01-24 09:00:00 12.7 24 Noroeste 39 Oeste 0 -- -- 80
2019-01-24 08:00:00 12.7 14 Noroeste 41 Norte 0 -- -- 80
2019-01-24 07:00:00 12.6 25 Norte 40 Norte 0 -- -- 80
2019-01-24 06:00:00 12.6 21 Noroeste 35 Noroeste 0 -- -- 80
2019-01-24 05:00:00 13.1 16 Norte 34 Norte 0 -- -- 78
2019-01-24 04:00:00 13.1 13 Norte 29 Norte 0 -- -- 78
2019-01-24 03:00:00 13.1 10 Noroeste 27 Oeste 0 -- -- 79
2019-01-24 02:00:00 13.1 16 Oeste 27 Noroeste 0 -- -- 78
2019-01-24 01:00:00 13 9 Noroeste 23 Noroeste 0 -- -- 78
2019-01-24 00:00:00 13.3 9 Noroeste 22 Oeste 0 -- -- 76
2019-01-23 23:00:00 13.6 9 Oeste 42 Noroeste 0 -- -- 74
2019-01-23 22:00:00 13.5 19 Noroeste 48 Oeste 0 -- -- 74
2019-01-23 21:00:00 13.4 21 Noroeste 37 Noroeste 0 -- -- 74
2019-01-23 20:00:00 13.2 20 Oeste 33 Oeste 0 -- -- 76
2019-01-23 19:00:00 12.9 15 Oeste 36 Noroeste 0 -- -- 76
2019-01-23 18:00:00 12.9 21 Noroeste 47 Oeste 0 -- -- 77
2019-01-23 17:00:00 12.9 27 Oeste 49 Oeste 0 -- -- 75
2019-01-23 16:00:00 12.8 24 Noroeste 50 Oeste 0 -- -- 75
2019-01-23 15:00:00 13.2 26 Noroeste 53 Noroeste 0 -- -- 72
2019-01-23 14:00:00 13.5 30 Noroeste 52 Noroeste 0 -- -- 72
2019-01-23 13:00:00 13.6 34 Noroeste 54 Noroeste 0 -- -- 68
2019-01-23 12:00:00 12.9 24 Noroeste 47 Oeste 0 -- -- 72
2019-01-23 11:00:00 11.6 19 Noroeste 37 Noroeste 0 -- -- 76
2019-01-23 10:00:00 10.3 19 Noroeste 31 Noroeste 0 -- -- 80
2019-01-23 09:00:00 10.2 19 Noroeste 36 Oeste 0 -- -- 77
2019-01-23 08:00:00 10.1 22 Noroeste 44 Norte 0 -- -- 78
2019-01-23 07:00:00 10 23 Noroeste 43 Noroeste 0 -- -- 78
2019-01-23 06:00:00 10.4 27 Noroeste 44 Oeste 0 -- -- 75
2019-01-23 05:00:00 10.8 29 Noroeste 51 Noroeste 0 -- -- 75
2019-01-23 04:00:00 11.5 23 Noroeste 48 Noroeste 0 -- -- 73
2019-01-23 03:00:00 11 15 Oeste 28 Oeste 0 -- -- 87
2019-01-23 02:00:00 10.4 14 Oeste 31 Oeste 0 -- -- 90
2019-01-23 01:00:00 10.4 17 Oeste 32 Oeste 0 -- -- 87
2019-01-23 00:00:00 11 9 Noroeste 31 Oeste 0 -- -- 81
2019-01-22 23:00:00 11.3 18 Oeste 39 Oeste 0 -- -- 75
2019-01-22 22:00:00 11.3 20 Oeste 38 Noroeste 0 -- -- 73
2019-01-22 21:00:00 11.1 23 Oeste 36 Oeste 0 -- -- 72
2019-01-22 20:00:00 11.1 18 Noroeste 37 Oeste 0 -- -- 70
2019-01-22 19:00:00 11.5 19 Noroeste 35 Noroeste 0 -- -- 67
2019-01-22 18:00:00 11.8 19 Noroeste 38 Noroeste 0 -- -- 65
2019-01-22 17:00:00 13 26 Norte 50 Norte 0 -- -- 58
2019-01-22 16:00:00 13.1 27 Norte 51 Noroeste 0 -- -- 60
2019-01-22 15:00:00 13.6 27 Noroeste 57 Norte 0 -- -- 55
2019-01-22 14:00:00 11.6 22 Noroeste 42 Oeste 0 -- -- 62
2019-01-22 13:00:00 12 16 Oeste 30 Noroeste 0 -- -- 62
2019-01-22 12:00:00 11.6 14 Noroeste 30 Noroeste 0 -- -- 62
2019-01-22 11:00:00 10 14 Norte 26 Noroeste 0 -- -- 64
2019-01-22 10:00:00 8.2 14 Noroeste 23 Noroeste 0 -- -- 69
2019-01-22 09:00:00 6.8 14 Noroeste 23 Noroeste 0 -- -- 72
2019-01-22 08:00:00 6.6 18 Noroeste 25 Noroeste 0 -- -- 72
2019-01-22 07:00:00 7.5 18 Noroeste 27 Noroeste 0 -- -- 69
2019-01-22 06:00:00 8.1 11 Noroeste 21 Noroeste 0 -- -- 66
2019-01-22 05:00:00 7.9 17 Noroeste 30 Noroeste 0 -- -- 67
2019-01-22 04:00:00 9.4 13 Noroeste 23 Noroeste 0 -- -- 61
2019-01-22 03:00:00 8.8 17 Noroeste 22 Noroeste 0 -- -- 64
2019-01-22 02:00:00 9.7 15 Noroeste 28 Noroeste 0 -- -- 60
2019-01-22 01:00:00 10.4 13 Noroeste 26 Noroeste 0 -- -- 58
2019-01-22 00:00:00 10.8 13 Norte 28 Norte 0 -- -- 56
2019-01-21 23:00:00 10.3 16 Noroeste 28 Norte 0 -- -- 59
2019-01-21 22:00:00 10.4 10 Noroeste 23 Norte 0 -- -- 59
2019-01-21 21:00:00 10.4 18 Noroeste 22 Noroeste 0 -- -- 59
2019-01-21 20:00:00 10.7 10 Noroeste 21 Norte 0 -- -- 63
2019-01-21 19:00:00 12.7 10 Noroeste 22 Norte 0 -- -- 50
2019-01-21 18:00:00 14.8 10 Norte 27 Noroeste 0 -- -- 55
2019-01-21 17:00:00 17.5 17 Norte 31 Norte 0 -- -- 49
2019-01-21 16:00:00 17.8 15 Noroeste 28 Oeste 0 -- -- 45
2019-01-21 15:00:00 17.9 12 Noroeste 26 Norte 0 -- -- 39
2019-01-21 14:00:00 16.4 12 Noroeste 24 Oeste 0 -- -- 45
2019-01-21 13:00:00 14.8 16 Noroeste 27 Oeste 0 -- -- 50
2019-01-21 12:00:00 13.2 15 Noroeste 24 Noroeste 0 -- -- 54
2019-01-21 11:00:00 11.6 18 Noroeste 26 Noroeste 0 -- -- 60
2019-01-21 10:00:00 11 11 Noroeste 18 Noroeste 0 -- -- 60
2019-01-21 09:00:00 9.5 6 Nordeste 21 Noroeste 0 -- -- 63
2019-01-21 08:00:00 8.1 15 Noroeste 22 Noroeste 0 -- -- 74
2019-01-21 07:00:00 8.6 14 Noroeste 21 Noroeste 0 -- -- 72
2019-01-21 06:00:00 8.3 9 Noroeste 17 Noroeste 0 -- -- 74
2019-01-21 05:00:00 9 13 Noroeste 21 Noroeste 0 -- -- 73
2019-01-21 04:00:00 9.6 14 Noroeste 23 Noroeste 0 -- -- 71
2019-01-21 03:00:00 9.5 13 Noroeste 24 Noroeste 0 -- -- 74
2019-01-21 02:00:00 9.1 15 Noroeste 24 Noroeste 0 -- -- 78
2019-01-21 01:00:00 10.4 18 Noroeste 28 Noroeste 0 -- -- 74
2019-01-21 00:00:00 10.5 20 Noroeste 27 Noroeste 0 -- -- 76
2019-01-20 23:00:00 9.8 13 Noroeste 22 Noroeste 0 -- -- 82
2019-01-20 22:00:00 10.9 12 Noroeste 27 Oeste 0 -- -- 79
2019-01-20 21:00:00 11.4 15 Oeste 21 Oeste 0 -- -- 80
2019-01-20 20:00:00 11.6 12 Noroeste 22 Noroeste 0 -- -- 77
2019-01-20 19:00:00 12 13 Oeste 21 Noroeste 0 -- -- 76
2019-01-20 18:00:00 12.6 11 Noroeste 25 Oeste 0 -- -- 75
2019-01-20 17:00:00 12.8 8 Sudoeste 30 Noroeste 0 -- -- 74
2019-01-20 16:00:00 12.6 15 Noroeste 36 Norte 0 -- -- 75
2019-01-20 15:00:00 13 14 Noroeste 39 Norte 0 -- -- 73
2019-01-20 14:00:00 13.5 20 Noroeste 40 Noroeste 0 -- -- 72
2019-01-20 13:00:00 13.7 27 Noroeste 49 Norte 0 -- -- 72
2019-01-20 12:00:00 12.5 20 Noroeste 42 Noroeste 0 -- -- 79
2019-01-20 11:00:00 12.4 22 Noroeste 49 Norte 0 -- -- 77
2019-01-20 10:00:00 12.4 26 Norte 48 Norte 0 -- -- 81
2019-01-20 09:00:00 12.4 24 Noroeste 45 Noroeste 0 -- -- 82
2019-01-20 08:00:00 12.5 13 Noroeste 33 Noroeste 0 -- -- 89
2019-01-20 07:00:00 12.2 5 Noroeste 35 Oeste 0 -- -- 88
2019-01-20 06:00:00 12.2 3 Oeste 23 Noroeste 0 -- -- 86
2019-01-20 05:00:00 12 6 Sudoeste 15 Sudoeste 0 -- -- 86
2019-01-20 04:00:00 12 5 Oeste 22 Noroeste 0 -- -- 87
2019-01-20 03:00:00 12.3 10 Noroeste 28 Oeste 0 -- -- 91
2019-01-20 02:00:00 12.5 15 Oeste 28 Oeste 0 -- -- 94
2019-01-20 01:00:00 12.5 11 Oeste 26 Sudoeste 7.8 -- -- 94
2019-01-20 00:00:00 13 7 Oeste 29 Oeste 1.2 -- -- 89
2019-01-19 23:00:00 13 11 Oeste 20 Oeste 0 -- -- 91
2019-01-19 22:00:00 12.4 6 Noroeste 15 Noroeste 0 -- -- 93
2019-01-19 21:00:00 12 7 Noroeste 16 Noroeste 0 -- -- 92
2019-01-19 20:00:00 11.7 10 Noroeste 17 Noroeste 0 -- -- 90
2019-01-19 19:00:00 11.4 7 Noroeste 23 Norte 0 -- -- 89
2019-01-19 18:00:00 11.7 15 Noroeste 26 Noroeste 0 -- -- 89
2019-01-19 17:00:00 12 19 Noroeste 31 Norte 0.4 -- -- 88
2019-01-19 16:00:00 12.7 20 Noroeste 30 Noroeste 0 -- -- 81
2019-01-19 15:00:00 12.4 21 Noroeste 37 Oeste 0 -- -- 82
2019-01-19 14:00:00 12.2 25 Noroeste 36 Noroeste 0 -- -- 82
2019-01-19 13:00:00 12 18 Noroeste 34 Oeste 0 -- -- 88
2019-01-19 12:00:00 11.4 19 Noroeste 35 Noroeste 0 -- -- 92
2019-01-19 11:00:00 10.2 14 Noroeste 22 Noroeste 0.2 -- -- 96
2019-01-19 10:00:00 10.1 9 Noroeste 13 Noroeste 0 -- -- 95
2019-01-19 09:00:00 10 3 Nordeste 9 Este 0.6 -- -- 95
2019-01-19 08:00:00 9.8 3 Norte 4 Nordeste 0.8 -- -- 94
2019-01-19 07:00:00 9.7 0 Calma 12 Noroeste 0.4 -- -- 94
2019-01-19 06:00:00 9.5 6 Norte 20 Norte 0.2 -- -- 93
2019-01-19 05:00:00 9.3 11 Noroeste 20 Noroeste 0.4 -- -- 91
2019-01-19 04:00:00 9.5 13 Noroeste 22 Oeste 0.2 -- -- 86
2019-01-19 03:00:00 10 10 Noroeste 27 Norte 0.4 -- -- 81
2019-01-19 02:00:00 10.8 8 Noroeste 19 Noroeste 0 -- -- 68
2019-01-19 01:00:00 10.4 9 Noroeste 16 Noroeste 0 -- -- 69
2019-01-19 00:00:00 10.6 9 Noroeste 22 Noroeste 0 -- -- 67